createdAt,value
2022-12-01T05:55:06.152Z,100908.78
2022-12-01T05:58:10.952Z,100904.56
2022-12-01T06:01:13.599Z,100910.94
2022-12-01T06:04:16.595Z,100906.62
2022-12-01T06:07:20.345Z,100908.44
2022-12-01T06:10:23.362Z,100905.09
2022-12-01T06:13:26.292Z,100913.19
2022-12-01T06:16:29.485Z,100906.16
2022-12-01T06:19:32.113Z,100912.22
2022-12-01T06:22:35.122Z,100917.19
2022-12-01T06:25:38.781Z,100913.28
2022-12-01T06:28:45.837Z,100914.41
2022-12-01T06:31:49.747Z,100917.28
2022-12-01T06:34:53.320Z,100926.47
2022-12-01T06:37:57.977Z,100924.75
2022-12-01T06:41:10.657Z,100928.06
2022-12-01T06:44:24.670Z,100937.69
2022-12-01T06:48:31.039Z,100918.87
2022-12-01T06:59:45.397Z,100914.66
2022-12-01T07:02:48.756Z,100929.38
2022-12-01T07:06:01.420Z,100929.72
2022-12-01T07:09:04.720Z,100937.53
2022-12-01T07:12:07.739Z,100931.81
2022-12-01T07:15:11.353Z,100940.09
2022-12-01T07:18:14.184Z,100944.78
2022-12-01T07:24:26.513Z,100952.13
2022-12-01T07:27:30.929Z,100945.56
2022-12-01T07:30:33.982Z,100961.12
2022-12-01T07:33:37.508Z,100960.53
2022-12-01T07:36:40.429Z,100961.38
2022-12-01T07:39:49.410Z,100961.69
2022-12-01T07:42:52.862Z,100961.41
2022-12-01T07:46:05.679Z,100963.09
2022-12-01T07:49:12.698Z,100964.50
2022-12-01T07:52:16.376Z,100954.28
2022-12-01T07:55:19.612Z,100960.88
2022-12-01T07:58:26.571Z,100959.31
2022-12-01T08:01:29.862Z,100960.03
2022-12-01T08:04:38.110Z,100961.94
2022-12-01T08:07:41.295Z,100957.56
2022-12-01T08:10:46.931Z,100952.19
2022-12-01T08:13:51.119Z,100949.75
2022-12-01T08:16:56.696Z,100950.62
2022-12-01T08:19:59.595Z,100947.09
2022-12-01T08:23:03.750Z,100944.63
2022-12-01T08:26:09.972Z,100947.84
2022-12-01T08:29:39.416Z,100963.03
2022-12-01T08:32:42.323Z,100964.12
2022-12-01T08:35:45.851Z,100971.91
2022-12-01T08:38:52.376Z,100961.09
2022-12-01T08:41:56.657Z,100963.00
2022-12-01T08:44:59.796Z,100973.06
2022-12-01T08:48:05.742Z,100971.91
2022-12-01T08:51:11.787Z,100981.56
2022-12-01T08:54:15.373Z,100976.78
2022-12-01T08:57:18.305Z,100979.31
2022-12-01T09:00:23.787Z,100974.91
2022-12-01T09:03:26.542Z,100971.09
2022-12-01T09:06:29.546Z,100977.75
2022-12-01T09:09:50.751Z,100969.44
2022-12-01T09:13:04.907Z,100963.59
2022-12-01T09:16:11.739Z,100964.28
2022-12-01T09:19:24.948Z,100959.03
2022-12-01T09:22:28.400Z,100956.72
2022-12-01T09:25:33.829Z,100947.09
2022-12-01T09:28:37.869Z,100946.13
2022-12-01T09:31:42.739Z,100947.88
2022-12-01T09:34:45.738Z,100937.81
2022-12-01T09:37:48.909Z,100945.03
2022-12-01T09:41:24.649Z,100945.16
2022-12-01T09:44:49.852Z,100940.44
2022-12-01T09:47:56.150Z,100928.22
2022-12-01T09:50:59.558Z,100931.16
2022-12-01T09:54:03.532Z,100932.03
2022-12-01T09:57:07.005Z,100932.37
2022-12-01T10:00:20.334Z,100932.81
2022-12-01T10:03:45.721Z,100933.59
2022-12-01T10:06:54.919Z,100922.53
2022-12-01T10:10:05.585Z,100922.34
2022-12-01T10:13:21.953Z,100919.91
2022-12-01T10:16:31.432Z,100924.25
2022-12-01T10:19:45.133Z,100915.88
2022-12-01T10:22:58.785Z,100905.84
2022-12-01T10:26:15.500Z,100893.31
2022-12-01T10:29:47.744Z,100889.78
2022-12-01T10:33:01.696Z,100894.44
2022-12-01T10:36:05.077Z,100893.03
2022-12-01T10:39:17.389Z,100888.81
2022-12-01T10:42:40.483Z,100876.69
2022-12-01T10:45:45.652Z,100887.13
2022-12-01T10:49:11.123Z,100886.03
2022-12-01T10:52:35.765Z,100883.03
2022-12-01T10:55:46.469Z,100892.38
2022-12-01T22:57:08.456Z,100873.28
2022-12-01T23:00:17.978Z,100870.69
2022-12-01T23:03:32.646Z,100862.53
2022-12-01T23:07:03.678Z,100864.37
2022-12-01T23:10:12.611Z,100859.66
2022-12-01T23:13:20.098Z,100851.34
2022-12-01T23:16:25.174Z,100857.06
2022-12-01T23:19:28.477Z,100861.59
2022-12-01T23:22:31.403Z,100855.84
2022-12-01T23:25:46.112Z,100862.56
2022-12-01T23:28:52.964Z,100854.88
2022-12-01T23:31:56.103Z,100854.88
2022-12-01T23:35:00.485Z,100859.09
2022-12-01T23:38:03.835Z,100863.25
2022-12-01T23:41:36.315Z,100862.88
2022-12-01T23:44:42.704Z,100866.06
2022-12-01T23:47:45.815Z,100858.81
2022-12-01T23:50:52.818Z,100860.84
2022-12-01T23:53:57.044Z,100871.31
2022-12-01T23:57:30.633Z,100875.91
